sensor_id;sensor_type;location;lat;lon;timestamp;pressure;altitude;pressure_sealevel;temperature;humidity
84116;BME280;74211;52.234;9.860;2024-02-14T00:02:03;100938.06;;;6.07;74.51
84116;BME280;74211;52.234;9.860;2024-02-14T00:04:37;100989.69;;;6.34;74.65
84116;BME280;74211;52.234;9.860;2024-02-14T00:07:08;100965.97;;;6.21;73.93
84116;BME280;74211;52.234;9.860;2024-02-14T00:09:42;100869.09;;;5.54;74.59
84116;BME280;74211;52.234;9.860;2024-02-14T00:12:12;100981.75;;;6.36;74.01
84116;BME280;74211;52.234;9.860;2024-02-14T00:14:44;101062.56;;;6.91;74.26
84116;BME280;74211;52.234;9.860;2024-02-14T00:17:24;100924.84;;;5.92;74.56
84116;BME280;74211;52.234;9.860;2024-02-14T00:20:01;101062.16;;;6.78;75.55
84116;BME280;74211;52.234;9.860;2024-02-14T00:22:31;100924.59;;;5.85;76.01
84116;BME280;74211;52.234;9.860;2024-02-14T00:25:04;100975.88;;;6.25;75.94
84116;BME280;74211;52.234;9.860;2024-02-14T00:27:35;101038.78;;;6.70;76.00
84116;BME280;74211;52.234;9.860;2024-02-14T00:30:07;101036.97;;;6.62;76.30
84116;BME280;74211;52.234;9.860;2024-02-14T00:32:37;101024.84;;;6.63;76.13
84116;BME280;74211;52.234;9.860;2024-02-14T00:35:11;101000.59;;;6.46;76.08
84116;BME280;74211;52.234;9.860;2024-02-14T00:37:41;101020.91;;;6.58;75.75
84116;BME280;74211;52.234;9.860;2024-02-14T00:40:14;101022.94;;;6.73;75.43
84116;BME280;74211;52.234;9.860;2024-02-14T00:42:45;101032.53;;;6.80;75.47
84116;BME280;74211;52.234;9.860;2024-02-14T00:45:16;101034.00;;;6.83;75.21
84116;BME280;74211;52.234;9.860;2024-02-14T00:47:49;101014.81;;;6.68;75.24
84116;BME280;74211;52.234;9.860;2024-02-14T00:50:22;101002.16;;;6.65;75.19
84116;BME280;74211;52.234;9.860;2024-02-14T00:52:54;101021.66;;;6.77;75.31
84116;BME280;74211;52.234;9.860;2024-02-14T00:55:27;100975.09;;;6.33;75.00
84116;BME280;74211;52.234;9.860;2024-02-14T00:57:58;101003.63;;;6.67;74.89
84116;BME280;74211;52.234;9.860;2024-02-14T01:00:30;100991.44;;;6.59;75.14
84116;BME280;74211;52.234;9.860;2024-02-14T01:03:06;100992.47;;;6.41;75.60
84116;BME280;74211;52.234;9.860;2024-02-14T01:05:44;100933.91;;;6.22;75.15
84116;BME280;74211;52.234;9.860;2024-02-14T01:08:22;100932.47;;;5.94;75.23
84116;BME280;74211;52.234;9.860;2024-02-14T01:10:53;100960.22;;;6.35;75.33
84116;BME280;74211;52.234;9.860;2024-02-14T01:13:25;100992.03;;;6.53;76.01
84116;BME280;74211;52.234;9.860;2024-02-14T01:16:01;100991.91;;;6.55;75.81
84116;BME280;74211;52.234;9.860;2024-02-14T01:18:32;100984.31;;;6.62;76.06
84116;BME280;74211;52.234;9.860;2024-02-14T01:21:06;100981.06;;;6.59;75.89
84116;BME280;74211;52.234;9.860;2024-02-14T01:23:37;100937.09;;;6.42;75.91
84116;BME280;74211;52.234;9.860;2024-02-14T01:26:07;100975.28;;;6.66;75.62
84116;BME280;74211;52.234;9.860;2024-02-14T01:28:37;100972.53;;;6.75;75.08
84116;BME280;74211;52.234;9.860;2024-02-14T01:31:09;100927.31;;;6.62;75.18
84116;BME280;74211;52.234;9.860;2024-02-14T01:33:40;100966.28;;;6.94;74.71
84116;BME280;74211;52.234;9.860;2024-02-14T01:36:15;100928.94;;;6.71;74.49
84116;BME280;74211;52.234;9.860;2024-02-14T01:38:45;100971.34;;;7.04;74.44
84116;BME280;74211;52.234;9.860;2024-02-14T01:41:16;100977.69;;;7.09;74.04
84116;BME280;74211;52.234;9.860;2024-02-14T01:43:51;100931.56;;;6.87;73.32
84116;BME280;74211;52.234;9.860;2024-02-14T01:46:22;100926.56;;;6.93;73.57
84116;BME280;74211;52.234;9.860;2024-02-14T01:48:52;100962.59;;;7.13;73.64
84116;BME280;74211;52.234;9.860;2024-02-14T01:51:27;100910.53;;;6.90;73.83
84116;BME280;74211;52.234;9.860;2024-02-14T01:53:58;100928.03;;;6.96;74.24
84116;BME280;74211;52.234;9.860;2024-02-14T01:56:30;100943.34;;;7.23;73.27
84116;BME280;74211;52.234;9.860;2024-02-14T01:59:03;100756.78;;;6.07;73.21
84116;BME280;74211;52.234;9.860;2024-02-14T02:01:35;100858.28;;;6.60;73.63
84116;BME280;74211;52.234;9.860;2024-02-14T02:04:06;100930.19;;;7.17;74.15
84116;BME280;74211;52.234;9.860;2024-02-14T02:06:40;100875.53;;;6.94;73.47
84116;BME280;74211;52.234;9.860;2024-02-14T02:09:13;100880.41;;;6.97;73.53
84116;BME280;74211;52.234;9.860;2024-02-14T02:11:49;100929.88;;;7.28;74.44
84116;BME280;74211;52.234;9.860;2024-02-14T02:14:21;100911.06;;;7.26;73.63
84116;BME280;74211;52.234;9.860;2024-02-14T02:16:51;100915.13;;;7.28;73.70
84116;BME280;74211;52.234;9.860;2024-02-14T02:19:22;100921.63;;;7.49;71.97
84116;BME280;74211;52.234;9.860;2024-02-14T02:21:56;100881.22;;;7.30;71.86
84116;BME280;74211;52.234;9.860;2024-02-14T02:24:29;100884.00;;;7.37;71.94
84116;BME280;74211;52.234;9.860;2024-02-14T02:26:59;100910.28;;;7.58;72.50
84116;BME280;74211;52.234;9.860;2024-02-14T02:29:30;100909.94;;;7.53;72.86
84116;BME280;74211;52.234;9.860;2024-02-14T02:32:01;100885.91;;;7.26;72.75
84116;BME280;74211;52.234;9.860;2024-02-14T02:34:32;100892.75;;;7.36;73.41
84116;BME280;74211;52.234;9.860;2024-02-14T02:37:03;100811.84;;;6.83;72.97
84116;BME280;74211;52.234;9.860;2024-02-14T02:39:38;100719.91;;;6.37;73.28
84116;BME280;74211;52.234;9.860;2024-02-14T02:42:08;100805.50;;;6.94;73.53
84116;BME280;74211;52.234;9.860;2024-02-14T02:44:39;100885.59;;;7.46;73.25
84116;BME280;74211;52.234;9.860;2024-02-14T02:47:09;100873.44;;;7.38;73.08
84116;BME280;74211;52.234;9.860;2024-02-14T02:49:40;100885.13;;;7.58;72.88
84116;BME280;74211;52.234;9.860;2024-02-14T02:52:11;100895.34;;;7.52;74.42
84116;BME280;74211;52.234;9.860;2024-02-14T02:54:44;100880.09;;;7.49;74.35
84116;BME280;74211;52.234;9.860;2024-02-14T02:57:14;100886.56;;;7.53;74.68
84116;BME280;74211;52.234;9.860;2024-02-14T02:59:46;100867.13;;;7.41;75.63
84116;BME280;74211;52.234;9.860;2024-02-14T03:02:18;100834.69;;;7.20;74.82
84116;BME280;74211;52.234;9.860;2024-02-14T03:04:53;100855.28;;;7.38;74.74
84116;BME280;74211;52.234;9.860;2024-02-14T03:07:28;100825.59;;;7.08;75.48
84116;BME280;74211;52.234;9.860;2024-02-14T03:10:02;100745.88;;;6.62;75.05
84116;BME280;74211;52.234;9.860;2024-02-14T03:12:37;100687.22;;;6.28;76.28
84116;BME280;74211;52.234;9.860;2024-02-14T03:15:13;100764.03;;;6.86;76.27
84116;BME280;74211;52.234;9.860;2024-02-14T03:17:47;100768.22;;;6.79;78.13
84116;BME280;74211;52.234;9.860;2024-02-14T03:20:17;100867.75;;;7.26;78.67
84116;BME280;74211;52.234;9.860;2024-02-14T03:22:47;100837.28;;;7.12;77.81
84116;BME280;74211;52.234;9.860;2024-02-14T03:25:20;100853.84;;;7.19;78.16
84116;BME280;74211;52.234;9.860;2024-02-14T03:27:58;100795.78;;;6.88;78.28
84116;BME280;74211;52.234;9.860;2024-02-14T03:30:36;100849.94;;;7.15;78.76
84116;BME280;74211;52.234;9.860;2024-02-14T03:33:07;100679.09;;;6.07;77.80
84116;BME280;74211;52.234;9.860;2024-02-14T03:35:41;100661.63;;;6.09;77.49
84116;BME280;74211;52.234;9.860;2024-02-14T03:38:24;100822.69;;;7.11;77.93
84116;BME280;74211;52.234;9.860;2024-02-14T03:41:04;100847.16;;;7.33;77.23
84116;BME280;74211;52.234;9.860;2024-02-14T03:43:35;100800.81;;;7.14;77.58
84116;BME280;74211;52.234;9.860;2024-02-14T03:46:06;100741.81;;;6.75;77.36
84116;BME280;74211;52.234;9.860;2024-02-14T03:48:46;100824.44;;;7.43;77.44
84116;BME280;74211;52.234;9.860;2024-02-14T03:51:20;100785.09;;;7.23;77.54
84116;BME280;74211;52.234;9.860;2024-02-14T03:53:53;100750.41;;;7.00;77.41
84116;BME280;74211;52.234;9.860;2024-02-14T03:56:27;100819.28;;;7.35;78.58
84116;BME280;74211;52.234;9.860;2024-02-14T03:59:01;100818.47;;;7.35;78.95
84116;BME280;74211;52.234;9.860;2024-02-14T04:01:33;100811.16;;;7.30;79.39
84116;BME280;74211;52.234;9.860;2024-02-14T04:04:04;100811.03;;;7.23;79.76
84116;BME280;74211;52.234;9.860;2024-02-14T04:06:35;100806.81;;;7.22;79.82
84116;BME280;74211;52.234;9.860;2024-02-14T04:09:05;100787.34;;;7.10;80.26
84116;BME280;74211;52.234;9.860;2024-02-14T04:11:39;100819.91;;;7.29;80.66
84116;BME280;74211;52.234;9.860;2024-02-14T04:14:10;100789.28;;;7.16;79.98
84116;BME280;74211;52.234;9.860;2024-02-14T04:16:41;100714.75;;;6.70;80.29
84116;BME280;74211;52.234;9.860;2024-02-14T04:19:12;100749.25;;;6.94;80.42
84116;BME280;74211;52.234;9.860;2024-02-14T04:21:45;100814.25;;;7.42;79.72
84116;BME280;74211;52.234;9.860;2024-02-14T04:24:18;100787.16;;;7.36;80.07
84116;BME280;74211;52.234;9.860;2024-02-14T04:26:52;100688.84;;;6.62;80.38
84116;BME280;74211;52.234;9.860;2024-02-14T04:29:24;100784.72;;;7.26;81.12
84116;BME280;74211;52.234;9.860;2024-02-14T04:32:01;100705.06;;;6.64;82.17
84116;BME280;74211;52.234;9.860;2024-02-14T04:34:32;100785.88;;;7.16;82.23
84116;BME280;74211;52.234;9.860;2024-02-14T04:37:06;100765.66;;;7.03;83.49
84116;BME280;74211;52.234;9.860;2024-02-14T04:39:40;100723.50;;;6.69;83.47
84116;BME280;74211;52.234;9.860;2024-02-14T04:42:12;100793.03;;;7.14;84.47
84116;BME280;74211;52.234;9.860;2024-02-14T04:44:43;100771.97;;;7.01;84.60
84116;BME280;74211;52.234;9.860;2024-02-14T04:47:13;100766.59;;;6.94;85.07
84116;BME280;74211;52.234;9.860;2024-02-14T04:49:43;100796.09;;;7.09;85.89
84116;BME280;74211;52.234;9.860;2024-02-14T04:52:14;100798.03;;;7.07;85.78
84116;BME280;74211;52.234;9.860;2024-02-14T04:54:44;100791.59;;;7.03;86.72
84116;BME280;74211;52.234;9.860;2024-02-14T04:57:17;100795.63;;;6.98;87.35
84116;BME280;74211;52.234;9.860;2024-02-14T04:59:49;100747.81;;;6.59;87.25
84116;BME280;74211;52.234;9.860;2024-02-14T05:02:20;100794.16;;;6.95;87.69
84116;BME280;74211;52.234;9.860;2024-02-14T05:04:51;100797.72;;;6.94;88.38
84116;BME280;74211;52.234;9.860;2024-02-14T05:07:22;100789.63;;;6.89;88.25
84116;BME280;74211;52.234;9.860;2024-02-14T05:09:52;100776.81;;;6.71;88.67
84116;BME280;74211;52.234;9.860;2024-02-14T05:12:26;100796.91;;;6.93;88.67
84116;BME280;74211;52.234;9.860;2024-02-14T05:14:56;100800.78;;;6.89;89.45
84116;BME280;74211;52.234;9.860;2024-02-14T05:17:26;100767.25;;;6.72;89.45
84116;BME280;74211;52.234;9.860;2024-02-14T05:19:57;100791.06;;;6.91;89.64
84116;BME280;74211;52.234;9.860;2024-02-14T05:22:29;100780.38;;;6.94;89.44
84116;BME280;74211;52.234;9.860;2024-02-14T05:25:00;100786.38;;;6.95;89.41
84116;BME280;74211;52.234;9.860;2024-02-14T05:27:34;100756.72;;;6.89;88.67
84116;BME280;74211;52.234;9.860;2024-02-14T05:30:05;100788.81;;;7.05;88.48
84116;BME280;74211;52.234;9.860;2024-02-14T05:32:36;100763.84;;;6.87;88.98
84116;BME280;74211;52.234;9.860;2024-02-14T05:35:07;100767.75;;;6.91;88.74
84116;BME280;74211;52.234;9.860;2024-02-14T05:37:37;100796.09;;;7.09;88.52
84116;BME280;74211;52.234;9.860;2024-02-14T05:40:09;100694.66;;;6.55;88.14
84116;BME280;74211;52.234;9.860;2024-02-14T05:42:43;100679.13;;;6.47;87.64
84116;BME280;74211;52.234;9.860;2024-02-14T05:45:14;100734.50;;;6.87;88.15
84116;BME280;74211;52.234;9.860;2024-02-14T05:47:44;100735.81;;;6.91;87.49
84116;BME280;74211;52.234;9.860;2024-02-14T05:50:15;100779.53;;;7.35;87.14
84116;BME280;74211;52.234;9.860;2024-02-14T05:52:46;100765.09;;;7.32;87.35
84116;BME280;74211;52.234;9.860;2024-02-14T05:55:16;100767.53;;;7.42;87.53
84116;BME280;74211;52.234;9.860;2024-02-14T05:57:49;100734.16;;;7.22;86.58
84116;BME280;74211;52.234;9.860;2024-02-14T06:00:21;100768.47;;;7.49;86.75
84116;BME280;74211;52.234;9.860;2024-02-14T06:02:55;100632.31;;;6.57;86.46
84116;BME280;74211;52.234;9.860;2024-02-14T06:05:26;100775.28;;;7.50;86.96
84116;BME280;74211;52.234;9.860;2024-02-14T06:07:56;100706.44;;;7.15;86.51
84116;BME280;74211;52.234;9.860;2024-02-14T06:10:26;100676.81;;;6.93;87.30
84116;BME280;74211;52.234;9.860;2024-02-14T06:12:59;100763.66;;;7.38;87.81
84116;BME280;74211;52.234;9.860;2024-02-14T06:15:30;100774.63;;;7.48;87.70
84116;BME280;74211;52.234;9.860;2024-02-14T06:18:00;100756.16;;;7.43;87.45
84116;BME280;74211;52.234;9.860;2024-02-14T06:20:31;100745.97;;;7.33;87.79
84116;BME280;74211;52.234;9.860;2024-02-14T06:23:02;100773.81;;;7.47;87.85
84116;BME280;74211;52.234;9.860;2024-02-14T06:25:38;100736.13;;;7.20;88.46
84116;BME280;74211;52.234;9.860;2024-02-14T06:28:11;100779.34;;;7.44;88.70
84116;BME280;74211;52.234;9.860;2024-02-14T06:30:42;100772.88;;;7.40;88.36
84116;BME280;74211;52.234;9.860;2024-02-14T06:33:12;100785.03;;;7.48;88.53
84116;BME280;74211;52.234;9.860;2024-02-14T06:35:44;100739.03;;;7.17;88.53
84116;BME280;74211;52.234;9.860;2024-02-14T06:38:14;100788.59;;;7.47;88.87
84116;BME280;74211;52.234;9.860;2024-02-14T06:40:46;100743.38;;;7.25;88.48
84116;BME280;74211;52.234;9.860;2024-02-14T06:43:21;100763.31;;;7.33;88.71
84116;BME280;74211;52.234;9.860;2024-02-14T06:45:52;100789.88;;;7.51;89.08
84116;BME280;74211;52.234;9.860;2024-02-14T06:48:22;100785.50;;;7.51;89.31
84116;BME280;74211;52.234;9.860;2024-02-14T06:50:52;100789.56;;;7.54;89.29
84116;BME280;74211;52.234;9.860;2024-02-14T06:53:27;100796.84;;;7.58;89.58
84116;BME280;74211;52.234;9.860;2024-02-14T06:55:57;100788.91;;;7.52;90.13
84116;BME280;74211;52.234;9.860;2024-02-14T06:58:30;100779.19;;;7.46;90.46
84116;BME280;74211;52.234;9.860;2024-02-14T07:01:00;100779.50;;;7.51;90.03
84116;BME280;74211;52.234;9.860;2024-02-14T07:03:30;100801.56;;;7.55;90.23
84116;BME280;74211;52.234;9.860;2024-02-14T07:06:00;100802.06;;;7.58;90.24
84116;BME280;74211;52.234;9.860;2024-02-14T07:08:31;100790.69;;;7.51;89.87
84116;BME280;74211;52.234;9.860;2024-02-14T07:11:02;100781.28;;;7.50;90.36
84116;BME280;74211;52.234;9.860;2024-02-14T07:13:34;100776.59;;;7.46;90.46
84116;BME280;74211;52.234;9.860;2024-02-14T07:16:05;100796.22;;;7.56;90.82
84116;BME280;74211;52.234;9.860;2024-02-14T07:18:37;100799.09;;;7.61;90.28
84116;BME280;74211;52.234;9.860;2024-02-14T07:21:08;100807.41;;;7.57;91.47
84116;BME280;74211;52.234;9.860;2024-02-14T07:23:39;100796.38;;;7.55;91.01
84116;BME280;74211;52.234;9.860;2024-02-14T07:26:09;100809.69;;;7.60;91.06
84116;BME280;74211;52.234;9.860;2024-02-14T07:28:42;100815.19;;;7.57;91.65
84116;BME280;74211;52.234;9.860;2024-02-14T07:31:12;100801.72;;;7.45;91.66
84116;BME280;74211;52.234;9.860;2024-02-14T07:33:43;100821.34;;;7.56;91.82
84116;BME280;74211;52.234;9.860;2024-02-14T07:36:15;100800.78;;;7.38;91.90
84116;BME280;74211;52.234;9.860;2024-02-14T07:38:45;100808.38;;;7.48;92.20
84116;BME280;74211;52.234;9.860;2024-02-14T07:41:17;100815.31;;;7.63;92.05
84116;BME280;74211;52.234;9.860;2024-02-14T07:43:50;100829.44;;;7.69;92.37
84116;BME280;74211;52.234;9.860;2024-02-14T07:46:20;100821.50;;;7.62;91.86
84116;BME280;74211;52.234;9.860;2024-02-14T07:48:53;100831.53;;;7.74;91.97
84116;BME280;74211;52.234;9.860;2024-02-14T07:51:25;100822.78;;;7.75;92.53
84116;BME280;74211;52.234;9.860;2024-02-14T07:53:56;100815.00;;;7.67;91.99
84116;BME280;74211;52.234;9.860;2024-02-14T07:56:26;100823.44;;;7.69;93.04
84116;BME280;74211;52.234;9.860;2024-02-14T07:58:59;100818.94;;;7.54;93.57
84116;BME280;74211;52.234;9.860;2024-02-14T08:01:30;100827.97;;;7.67;93.41
84116;BME280;74211;52.234;9.860;2024-02-14T08:04:00;100817.94;;;7.55;93.99
84116;BME280;74211;52.234;9.860;2024-02-14T08:06:31;100843.72;;;7.65;93.71
84116;BME280;74211;52.234;9.860;2024-02-14T08:09:02;100835.94;;;7.65;93.91
84116;BME280;74211;52.234;9.860;2024-02-14T08:11:37;100816.00;;;7.57;93.77
84116;BME280;74211;52.234;9.860;2024-02-14T08:14:10;100835.59;;;7.68;93.85
84116;BME280;74211;52.234;9.860;2024-02-14T08:16:40;100839.34;;;7.74;94.30
84116;BME280;74211;52.234;9.860;2024-02-14T08:19:11;100841.94;;;7.74;94.10
84116;BME280;74211;52.234;9.860;2024-02-14T08:21:43;100840.16;;;7.74;94.66
84116;BME280;74211;52.234;9.860;2024-02-14T08:24:13;100817.13;;;7.55;94.28
84116;BME280;74211;52.234;9.860;2024-02-14T08:26:44;100829.13;;;7.64;94.28
84116;BME280;74211;52.234;9.860;2024-02-14T08:29:18;100857.31;;;7.83;94.37
84116;BME280;74211;52.234;9.860;2024-02-14T08:31:48;100849.84;;;7.88;94.07
84116;BME280;74211;52.234;9.860;2024-02-14T08:34:22;100846.59;;;7.86;94.35
84116;BME280;74211;52.234;9.860;2024-02-14T08:36:53;100842.53;;;7.84;94.41
84116;BME280;74211;52.234;9.860;2024-02-14T08:39:24;100861.84;;;7.97;94.24
84116;BME280;74211;52.234;9.860;2024-02-14T08:42:00;100863.63;;;7.97;94.52
84116;BME280;74211;52.234;9.860;2024-02-14T08:44:38;100865.06;;;7.99;94.78
84116;BME280;74211;52.234;9.860;2024-02-14T08:47:08;100853.69;;;8.00;94.96
84116;BME280;74211;52.234;9.860;2024-02-14T08:49:40;100854.81;;;7.98;94.94
84116;BME280;74211;52.234;9.860;2024-02-14T08:52:11;100866.81;;;8.07;94.86
84116;BME280;74211;52.234;9.860;2024-02-14T08:54:42;100864.88;;;8.09;94.66
84116;BME280;74211;52.234;9.860;2024-02-14T08:57:12;100863.75;;;8.12;94.46
84116;BME280;74211;52.234;9.860;2024-02-14T08:59:46;100844.91;;;8.02;94.30
84116;BME280;74211;52.234;9.860;2024-02-14T09:02:17;100868.56;;;8.23;94.25
84116;BME280;74211;52.234;9.860;2024-02-14T09:04:49;100860.28;;;8.19;94.58
84116;BME280;74211;52.234;9.860;2024-02-14T09:07:20;100842.63;;;8.15;94.40
84116;BME280;74211;52.234;9.860;2024-02-14T09:09:51;100868.88;;;8.28;94.00
84116;BME280;74211;52.234;9.860;2024-02-14T09:12:21;100869.31;;;8.40;94.19
84116;BME280;74211;52.234;9.860;2024-02-14T09:14:54;100853.25;;;8.36;94.22
84116;BME280;74211;52.234;9.860;2024-02-14T09:17:25;100871.56;;;8.51;93.95
84116;BME280;74211;52.234;9.860;2024-02-14T09:19:55;100855.50;;;8.47;93.53
84116;BME280;74211;52.234;9.860;2024-02-14T09:22:26;100870.06;;;8.56;93.81
84116;BME280;74211;52.234;9.860;2024-02-14T09:24:56;100878.00;;;8.63;93.46
84116;BME280;74211;52.234;9.860;2024-02-14T09:27:27;100884.41;;;8.75;93.02
84116;BME280;74211;52.234;9.860;2024-02-14T09:30:00;100889.75;;;8.82;92.97
84116;BME280;74211;52.234;9.860;2024-02-14T09:32:37;100890.06;;;8.87;93.03
84116;BME280;74211;52.234;9.860;2024-02-14T09:35:08;100885.88;;;8.78;92.44
84116;BME280;74211;52.234;9.860;2024-02-14T09:37:38;100899.34;;;8.81;92.65
84116;BME280;74211;52.234;9.860;2024-02-14T09:40:10;100889.41;;;8.85;93.60
84116;BME280;74211;52.234;9.860;2024-02-14T09:42:44;100890.31;;;8.92;93.22
84116;BME280;74211;52.234;9.860;2024-02-14T09:45:18;100861.19;;;8.96;92.73
84116;BME280;74211;52.234;9.860;2024-02-14T09:47:52;100869.22;;;9.10;92.03
84116;BME280;74211;52.234;9.860;2024-02-14T09:50:23;100859.03;;;9.08;92.03
84116;BME280;74211;52.234;9.860;2024-02-14T09:52:54;100882.13;;;9.26;92.05
84116;BME280;74211;52.234;9.860;2024-02-14T09:55:25;100888.97;;;9.27;92.09
84116;BME280;74211;52.234;9.860;2024-02-14T09:57:57;100884.91;;;9.24;91.93
84116;BME280;74211;52.234;9.860;2024-02-14T10:00:34;100874.72;;;9.15;91.33
84116;BME280;74211;52.234;9.860;2024-02-14T10:03:05;100900.63;;;9.31;91.33
84116;BME280;74211;52.234;9.860;2024-02-14T10:05:35;100909.53;;;9.36;90.61
84116;BME280;74211;52.234;9.860;2024-02-14T10:08:06;100883.16;;;9.40;90.70
84116;BME280;74211;52.234;9.860;2024-02-14T10:10:37;100897.66;;;9.57;91.13
84116;BME280;74211;52.234;9.860;2024-02-14T10:13:07;100915.84;;;9.80;90.51
84116;BME280;74211;52.234;9.860;2024-02-14T10:15:40;100901.56;;;9.76;90.68
84116;BME280;74211;52.234;9.860;2024-02-14T10:18:10;100919.63;;;9.77;90.36
84116;BME280;74211;52.234;9.860;2024-02-14T10:20:51;100917.72;;;9.71;91.28
84116;BME280;74211;52.234;9.860;2024-02-14T10:23:21;100935.66;;;9.66;90.55
84116;BME280;74211;52.234;9.860;2024-02-14T10:25:53;100934.59;;;9.60;90.51
84116;BME280;74211;52.234;9.860;2024-02-14T10:28:25;100930.81;;;9.63;91.21
84116;BME280;74211;52.234;9.860;2024-02-14T10:31:12;100935.91;;;9.56;90.88
84116;BME280;74211;52.234;9.860;2024-02-14T10:33:43;100946.66;;;9.76;90.52
84116;BME280;74211;52.234;9.860;2024-02-14T10:36:14;100939.94;;;9.96;90.29
84116;BME280;74211;52.234;9.860;2024-02-14T10:38:47;100908.09;;;9.71;89.84
84116;BME280;74211;52.234;9.860;2024-02-14T10:41:18;100947.03;;;10.02;90.38
84116;BME280;74211;52.234;9.860;2024-02-14T10:43:49;100951.47;;;10.17;90.36
84116;BME280;74211;52.234;9.860;2024-02-14T10:46:23;100919.13;;;10.26;89.55
84116;BME280;74211;52.234;9.860;2024-02-14T10:49:02;100952.94;;;10.49;89.05
84116;BME280;74211;52.234;9.860;2024-02-14T10:51:35;100965.16;;;10.48;89.34
84116;BME280;74211;52.234;9.860;2024-02-14T10:54:10;100957.00;;;10.36;89.13
84116;BME280;74211;52.234;9.860;2024-02-14T10:56:42;100951.31;;;10.48;88.61
84116;BME280;74211;52.234;9.860;2024-02-14T10:59:17;100955.00;;;10.53;88.25
84116;BME280;74211;52.234;9.860;2024-02-14T11:01:52;100955.56;;;10.34;88.74
84116;BME280;74211;52.234;9.860;2024-02-14T11:04:27;100923.22;;;10.05;89.77
84116;BME280;74211;52.234;9.860;2024-02-14T11:06:59;100961.41;;;10.36;89.91
84116;BME280;74211;52.234;9.860;2024-02-14T11:09:33;100956.03;;;10.37;89.99
84116;BME280;74211;52.234;9.860;2024-02-14T11:12:07;100960.94;;;10.32;89.73
84116;BME280;74211;52.234;9.860;2024-02-14T11:14:42;100971.09;;;10.42;89.73
84116;BME280;74211;52.234;9.860;2024-02-14T11:17:15;100973.19;;;10.32;89.26
84116;BME280;74211;52.234;9.860;2024-02-14T11:19:51;100969.13;;;10.44;89.07
84116;BME280;74211;52.234;9.860;2024-02-14T11:22:23;100977.75;;;10.45;89.09
84116;BME280;74211;52.234;9.860;2024-02-14T11:24:53;100978.28;;;10.40;88.97
84116;BME280;74211;52.234;9.860;2024-02-14T11:27:23;100983.78;;;10.45;88.65
84116;BME280;74211;52.234;9.860;2024-02-14T11:30:01;100969.47;;;10.41;89.38
84116;BME280;74211;52.234;9.860;2024-02-14T11:32:36;100965.06;;;10.27;89.15
84116;BME280;74211;52.234;9.860;2024-02-14T11:35:11;100982.16;;;10.44;89.21
84116;BME280;74211;52.234;9.860;2024-02-14T11:37:43;100958.81;;;10.36;89.10
84116;BME280;74211;52.234;9.860;2024-02-14T11:40:14;100985.69;;;10.51;89.45
84116;BME280;74211;52.234;9.860;2024-02-14T11:42:44;100984.69;;;10.52;89.39
84116;BME280;74211;52.234;9.860;2024-02-14T11:45:17;100935.97;;;10.38;88.92
84116;BME280;74211;52.234;9.860;2024-02-14T11:47:50;100974.97;;;10.75;88.09
84116;BME280;74211;52.234;9.860;2024-02-14T11:50:21;100970.66;;;10.68;88.12
84116;BME280;74211;52.234;9.860;2024-02-14T11:52:51;100979.53;;;10.59;88.21
84116;BME280;74211;52.234;9.860;2024-02-14T11:55:27;100959.47;;;10.59;88.42
84116;BME280;74211;52.234;9.860;2024-02-14T11:58:01;100956.25;;;10.43;88.15
84116;BME280;74211;52.234;9.860;2024-02-14T12:00:31;100976.84;;;10.67;88.46
84116;BME280;74211;52.234;9.860;2024-02-14T12:03:06;100978.56;;;10.74;88.92
84116;BME280;74211;52.234;9.860;2024-02-14T12:05:39;100985.75;;;10.72;88.56
84116;BME280;74211;52.234;9.860;2024-02-14T12:08:14;100948.53;;;10.49;88.65
84116;BME280;74211;52.234;9.860;2024-02-14T12:10:48;100992.69;;;10.65;88.70
84116;BME280;74211;52.234;9.860;2024-02-14T12:13:21;100991.59;;;10.60;88.84
84116;BME280;74211;52.234;9.860;2024-02-14T12:15:52;101007.72;;;10.63;89.56
84116;BME280;74211;52.234;9.860;2024-02-14T12:18:26;100972.66;;;10.51;89.69
84116;BME280;74211;52.234;9.860;2024-02-14T12:21:03;100979.94;;;10.56;89.29
84116;BME280;74211;52.234;9.860;2024-02-14T12:23:36;101001.78;;;10.69;89.46
84116;BME280;74211;52.234;9.860;2024-02-14T12:26:10;100991.97;;;10.71;89.40
84116;BME280;74211;52.234;9.860;2024-02-14T12:28:47;100988.81;;;10.61;89.16
84116;BME280;74211;52.234;9.860;2024-02-14T12:31:22;101002.59;;;10.70;89.84
84116;BME280;74211;52.234;9.860;2024-02-14T12:33:55;101006.72;;;10.64;90.13
84116;BME280;74211;52.234;9.860;2024-02-14T12:36:28;100984.94;;;10.43;90.11
84116;BME280;74211;52.234;9.860;2024-02-14T12:39:00;100970.41;;;10.33;90.30
84116;BME280;74211;52.234;9.860;2024-02-14T12:41:31;101008.44;;;10.57;90.15
84116;BME280;74211;52.234;9.860;2024-02-14T12:44:03;101000.00;;;10.55;90.33
84116;BME280;74211;52.234;9.860;2024-02-14T12:46:36;100990.53;;;10.54;89.77
84116;BME280;74211;52.234;9.860;2024-02-14T12:49:13;100966.44;;;10.37;89.68
84116;BME280;74211;52.234;9.860;2024-02-14T12:51:45;101013.47;;;10.73;89.78
84116;BME280;74211;52.234;9.860;2024-02-14T12:54:16;100991.72;;;10.52;89.28
84116;BME280;74211;52.234;9.860;2024-02-14T12:56:51;101014.28;;;10.74;89.46
84116;BME280;74211;52.234;9.860;2024-02-14T12:59:25;101015.91;;;10.75;89.34
84116;BME280;74211;52.234;9.860;2024-02-14T13:01:56;101008.63;;;10.70;89.29
84116;BME280;74211;52.234;9.860;2024-02-14T13:04:30;101003.47;;;10.62;89.30
84116;BME280;74211;52.234;9.860;2024-02-14T13:07:03;100985.69;;;10.51;90.22
84116;BME280;74211;52.234;9.860;2024-02-14T13:09:35;100949.81;;;10.38;89.17
84116;BME280;74211;52.234;9.860;2024-02-14T13:12:07;101006.63;;;10.72;88.62
84116;BME280;74211;52.234;9.860;2024-02-14T13:14:40;101008.31;;;10.80;88.67
84116;BME280;74211;52.234;9.860;2024-02-14T13:17:11;100980.75;;;10.56;89.48
84116;BME280;74211;52.234;9.860;2024-02-14T13:19:45;101015.97;;;10.82;89.70
84116;BME280;74211;52.234;9.860;2024-02-14T13:22:19;101014.19;;;10.67;90.08
84116;BME280;74211;52.234;9.860;2024-02-14T13:24:52;101008.53;;;10.64;90.14